sensor_id;sensor_type;location;lat;lon;timestamp;P1;durP1;ratioP1;P2;durP2;ratioP2
3916;SDS011;1973;50.518;7.318;2023-11-18T00:01:50;31.27;;;19.40;;
3916;SDS011;1973;50.518;7.318;2023-11-18T00:04:16;28.80;;;19.17;;
3916;SDS011;1973;50.518;7.318;2023-11-18T00:06:43;31.13;;;19.27;;
3916;SDS011;1973;50.518;7.318;2023-11-18T00:09:11;29.40;;;19.37;;
3916;SDS011;1973;50.518;7.318;2023-11-18T00:11:41;28.33;;;17.87;;
3916;SDS011;1973;50.518;7.318;2023-11-18T00:14:09;20.23;;;13.90;;
3916;SDS011;1973;50.518;7.318;2023-11-18T00:16:37;23.77;;;14.17;;
3916;SDS011;1973;50.518;7.318;2023-11-18T00:19:05;24.97;;;14.93;;
3916;SDS011;1973;50.518;7.318;2023-11-18T00:21:32;22.20;;;14.50;;
3916;SDS011;1973;50.518;7.318;2023-11-18T00:23:58;19.00;;;13.57;;
3916;SDS011;1973;50.518;7.318;2023-11-18T00:26:25;21.13;;;13.57;;
3916;SDS011;1973;50.518;7.318;2023-11-18T00:28:52;23.80;;;14.73;;
3916;SDS011;1973;50.518;7.318;2023-11-18T00:31:18;26.77;;;16.33;;
3916;SDS011;1973;50.518;7.318;2023-11-18T00:33:45;22.73;;;14.50;;
3916;SDS011;1973;50.518;7.318;2023-11-18T00:36:12;24.77;;;16.37;;
3916;SDS011;1973;50.518;7.318;2023-11-18T00:38:39;27.70;;;16.33;;
3916;SDS011;1973;50.518;7.318;2023-11-18T00:41:06;26.53;;;17.20;;
3916;SDS011;1973;50.518;7.318;2023-11-18T00:43:33;27.70;;;17.10;;
3916;SDS011;1973;50.518;7.318;2023-11-18T00:45:59;28.93;;;19.17;;
3916;SDS011;1973;50.518;7.318;2023-11-18T00:48:30;25.23;;;16.50;;
3916;SDS011;1973;50.518;7.318;2023-11-18T00:50:57;26.87;;;16.30;;
3916;SDS011;1973;50.518;7.318;2023-11-18T00:53:23;29.23;;;18.07;;
3916;SDS011;1973;50.518;7.318;2023-11-18T00:55:50;27.97;;;17.80;;
3916;SDS011;1973;50.518;7.318;2023-11-18T00:58:17;25.80;;;16.00;;
3916;SDS011;1973;50.518;7.318;2023-11-18T01:00:43;22.37;;;14.77;;
3916;SDS011;1973;50.518;7.318;2023-11-18T01:03:10;22.87;;;14.40;;
3916;SDS011;1973;50.518;7.318;2023-11-18T01:05:37;26.03;;;14.07;;
3916;SDS011;1973;50.518;7.318;2023-11-18T01:08:03;21.23;;;14.03;;
3916;SDS011;1973;50.518;7.318;2023-11-18T01:10:31;22.40;;;13.67;;
3916;SDS011;1973;50.518;7.318;2023-11-18T01:12:59;22.93;;;13.33;;
3916;SDS011;1973;50.518;7.318;2023-11-18T01:15:27;18.90;;;13.57;;
3916;SDS011;1973;50.518;7.318;2023-11-18T01:17:53;19.77;;;13.50;;
3916;SDS011;1973;50.518;7.318;2023-11-18T01:20:20;21.53;;;13.13;;
3916;SDS011;1973;50.518;7.318;2023-11-18T01:22:48;19.27;;;13.10;;
3916;SDS011;1973;50.518;7.318;2023-11-18T01:25:15;20.03;;;13.00;;
3916;SDS011;1973;50.518;7.318;2023-11-18T01:27:45;21.10;;;13.40;;
3916;SDS011;1973;50.518;7.318;2023-11-18T01:30:14;21.30;;;13.80;;
3916;SDS011;1973;50.518;7.318;2023-11-18T01:32:41;22.23;;;13.87;;
3916;SDS011;1973;50.518;7.318;2023-11-18T01:35:08;21.30;;;13.57;;
3916;SDS011;1973;50.518;7.318;2023-11-18T01:37:37;22.83;;;14.63;;
3916;SDS011;1973;50.518;7.318;2023-11-18T01:40:05;29.17;;;14.53;;
3916;SDS011;1973;50.518;7.318;2023-11-18T01:42:34;23.30;;;13.87;;
3916;SDS011;1973;50.518;7.318;2023-11-18T01:45:01;20.83;;;13.70;;
3916;SDS011;1973;50.518;7.318;2023-11-18T01:47:31;32.17;;;18.20;;
3916;SDS011;1973;50.518;7.318;2023-11-18T01:50:00;32.60;;;18.77;;
3916;SDS011;1973;50.518;7.318;2023-11-18T01:52:27;33.07;;;20.60;;
3916;SDS011;1973;50.518;7.318;2023-11-18T01:54:56;41.80;;;22.53;;
3916;SDS011;1973;50.518;7.318;2023-11-18T01:57:24;34.80;;;20.83;;
3916;SDS011;1973;50.518;7.318;2023-11-18T01:59:53;36.07;;;20.40;;
3916;SDS011;1973;50.518;7.318;2023-11-18T02:02:20;38.73;;;21.67;;
3916;SDS011;1973;50.518;7.318;2023-11-18T02:04:49;39.53;;;22.57;;
3916;SDS011;1973;50.518;7.318;2023-11-18T02:07:16;40.60;;;22.30;;
3916;SDS011;1973;50.518;7.318;2023-11-18T02:09:44;47.17;;;21.70;;
3916;SDS011;1973;50.518;7.318;2023-11-18T02:15:14;35.90;;;20.87;;
3916;SDS011;1973;50.518;7.318;2023-11-18T02:17:41;33.07;;;20.40;;
3916;SDS011;1973;50.518;7.318;2023-11-18T02:20:10;24.03;;;15.23;;
3916;SDS011;1973;50.518;7.318;2023-11-18T02:22:43;36.40;;;19.50;;
3916;SDS011;1973;50.518;7.318;2023-11-18T02:25:10;35.43;;;20.50;;
3916;SDS011;1973;50.518;7.318;2023-11-18T02:27:42;40.70;;;21.17;;
3916;SDS011;1973;50.518;7.318;2023-11-18T02:30:09;37.73;;;22.13;;
3916;SDS011;1973;50.518;7.318;2023-11-18T02:32:40;44.30;;;24.27;;
3916;SDS011;1973;50.518;7.318;2023-11-18T02:35:39;40.37;;;21.73;;
3916;SDS011;1973;50.518;7.318;2023-11-18T02:38:15;41.10;;;20.90;;
3916;SDS011;1973;50.518;7.318;2023-11-18T02:40:45;43.43;;;22.27;;
3916;SDS011;1973;50.518;7.318;2023-11-18T02:43:14;39.27;;;22.20;;
3916;SDS011;1973;50.518;7.318;2023-11-18T02:45:41;38.33;;;22.50;;
3916;SDS011;1973;50.518;7.318;2023-11-18T02:48:09;43.00;;;21.33;;
3916;SDS011;1973;50.518;7.318;2023-11-18T02:50:35;48.80;;;25.73;;
3916;SDS011;1973;50.518;7.318;2023-11-18T02:53:02;45.73;;;22.50;;
3916;SDS011;1973;50.518;7.318;2023-11-18T02:55:29;50.20;;;24.10;;
3916;SDS011;1973;50.518;7.318;2023-11-18T02:57:56;50.93;;;24.83;;
3916;SDS011;1973;50.518;7.318;2023-11-18T03:00:23;44.87;;;22.40;;
3916;SDS011;1973;50.518;7.318;2023-11-18T03:02:50;44.10;;;21.73;;
3916;SDS011;1973;50.518;7.318;2023-11-18T03:05:18;39.87;;;20.00;;
3916;SDS011;1973;50.518;7.318;2023-11-18T03:07:45;39.00;;;21.67;;
3916;SDS011;1973;50.518;7.318;2023-11-18T03:10:16;44.27;;;21.17;;
3916;SDS011;1973;50.518;7.318;2023-11-18T03:12:52;37.77;;;20.10;;
3916;SDS011;1973;50.518;7.318;2023-11-18T03:15:23;38.17;;;20.43;;
3916;SDS011;1973;50.518;7.318;2023-11-18T03:17:50;41.77;;;22.50;;
3916;SDS011;1973;50.518;7.318;2023-11-18T03:20:17;44.77;;;22.67;;
3916;SDS011;1973;50.518;7.318;2023-11-18T03:22:48;41.17;;;20.47;;
3916;SDS011;1973;50.518;7.318;2023-11-18T03:25:17;42.83;;;21.17;;
3916;SDS011;1973;50.518;7.318;2023-11-18T03:27:45;41.23;;;23.67;;
3916;SDS011;1973;50.518;7.318;2023-11-18T03:30:12;41.43;;;22.90;;
3916;SDS011;1973;50.518;7.318;2023-11-18T03:32:39;44.03;;;23.60;;
3916;SDS011;1973;50.518;7.318;2023-11-18T03:35:08;40.90;;;20.50;;
3916;SDS011;1973;50.518;7.318;2023-11-18T03:37:36;41.30;;;21.47;;
3916;SDS011;1973;50.518;7.318;2023-11-18T03:40:12;36.80;;;20.47;;
3916;SDS011;1973;50.518;7.318;2023-11-18T03:42:43;37.70;;;19.67;;
3916;SDS011;1973;50.518;7.318;2023-11-18T03:45:13;34.83;;;19.97;;
3916;SDS011;1973;50.518;7.318;2023-11-18T03:47:44;40.97;;;20.30;;
3916;SDS011;1973;50.518;7.318;2023-11-18T03:50:11;37.57;;;21.20;;
3916;SDS011;1973;50.518;7.318;2023-11-18T03:52:39;34.20;;;20.17;;
3916;SDS011;1973;50.518;7.318;2023-11-18T03:55:07;41.53;;;22.40;;
3916;SDS011;1973;50.518;7.318;2023-11-18T03:57:34;40.87;;;22.33;;
3916;SDS011;1973;50.518;7.318;2023-11-18T04:00:01;41.63;;;21.80;;
3916;SDS011;1973;50.518;7.318;2023-11-18T04:02:29;40.37;;;22.50;;
3916;SDS011;1973;50.518;7.318;2023-11-18T04:04:55;35.93;;;20.87;;
3916;SDS011;1973;50.518;7.318;2023-11-18T04:07:23;37.30;;;23.70;;
3916;SDS011;1973;50.518;7.318;2023-11-18T04:09:49;44.90;;;23.30;;
3916;SDS011;1973;50.518;7.318;2023-11-18T04:12:16;42.03;;;23.50;;
3916;SDS011;1973;50.518;7.318;2023-11-18T04:14:42;37.97;;;21.70;;
3916;SDS011;1973;50.518;7.318;2023-11-18T04:17:09;40.07;;;21.83;;
3916;SDS011;1973;50.518;7.318;2023-11-18T04:19:36;37.13;;;20.40;;
3916;SDS011;1973;50.518;7.318;2023-11-18T04:22:03;39.30;;;20.70;;
3916;SDS011;1973;50.518;7.318;2023-11-18T04:24:31;36.13;;;20.27;;
3916;SDS011;1973;50.518;7.318;2023-11-18T04:26:57;33.60;;;18.90;;
3916;SDS011;1973;50.518;7.318;2023-11-18T04:29:24;34.60;;;17.80;;
3916;SDS011;1973;50.518;7.318;2023-11-18T04:31:50;33.87;;;18.07;;
3916;SDS011;1973;50.518;7.318;2023-11-18T04:34:17;30.53;;;17.07;;
3916;SDS011;1973;50.518;7.318;2023-11-18T04:36:43;30.50;;;16.70;;
3916;SDS011;1973;50.518;7.318;2023-11-18T04:39:10;29.87;;;15.87;;
3916;SDS011;1973;50.518;7.318;2023-11-18T04:41:42;27.93;;;16.13;;
3916;SDS011;1973;50.518;7.318;2023-11-18T04:44:08;28.27;;;16.27;;
3916;SDS011;1973;50.518;7.318;2023-11-18T04:46:35;27.93;;;16.93;;
3916;SDS011;1973;50.518;7.318;2023-11-18T04:49:03;28.43;;;17.17;;
3916;SDS011;1973;50.518;7.318;2023-11-18T04:51:31;28.70;;;16.10;;
3916;SDS011;1973;50.518;7.318;2023-11-18T04:53:59;25.73;;;16.90;;
3916;SDS011;1973;50.518;7.318;2023-11-18T04:56:25;29.33;;;17.90;;
3916;SDS011;1973;50.518;7.318;2023-11-18T04:58:52;24.93;;;15.33;;
3916;SDS011;1973;50.518;7.318;2023-11-18T05:01:19;29.73;;;17.00;;
3916;SDS011;1973;50.518;7.318;2023-11-18T05:03:45;30.37;;;16.57;;
3916;SDS011;1973;50.518;7.318;2023-11-18T05:06:12;25.53;;;16.77;;
3916;SDS011;1973;50.518;7.318;2023-11-18T05:08:39;31.30;;;17.23;;
3916;SDS011;1973;50.518;7.318;2023-11-18T05:11:05;26.70;;;15.53;;
3916;SDS011;1973;50.518;7.318;2023-11-18T05:13:33;22.50;;;14.50;;
3916;SDS011;1973;50.518;7.318;2023-11-18T05:16:00;30.43;;;15.80;;
3916;SDS011;1973;50.518;7.318;2023-11-18T05:18:27;26.70;;;16.23;;
3916;SDS011;1973;50.518;7.318;2023-11-18T05:20:59;23.50;;;14.73;;
3916;SDS011;1973;50.518;7.318;2023-11-18T05:23:26;26.00;;;16.63;;
3916;SDS011;1973;50.518;7.318;2023-11-18T05:25:55;25.97;;;16.20;;
3916;SDS011;1973;50.518;7.318;2023-11-18T05:28:22;23.47;;;14.67;;
3916;SDS011;1973;50.518;7.318;2023-11-18T05:30:49;24.00;;;15.43;;
3916;SDS011;1973;50.518;7.318;2023-11-18T05:33:17;27.57;;;15.87;;
3916;SDS011;1973;50.518;7.318;2023-11-18T05:35:44;31.33;;;17.70;;
3916;SDS011;1973;50.518;7.318;2023-11-18T05:38:20;32.50;;;19.00;;
3916;SDS011;1973;50.518;7.318;2023-11-18T05:40:51;31.63;;;18.93;;
3916;SDS011;1973;50.518;7.318;2023-11-18T05:43:28;33.47;;;18.33;;
3916;SDS011;1973;50.518;7.318;2023-11-18T05:46:03;29.60;;;17.40;;
3916;SDS011;1973;50.518;7.318;2023-11-18T05:48:49;32.57;;;18.10;;
3916;SDS011;1973;50.518;7.318;2023-11-18T05:51:19;32.43;;;19.47;;
3916;SDS011;1973;50.518;7.318;2023-11-18T05:53:48;36.07;;;20.77;;
3916;SDS011;1973;50.518;7.318;2023-11-18T05:56:15;29.50;;;18.43;;
3916;SDS011;1973;50.518;7.318;2023-11-18T05:58:45;28.67;;;19.63;;
3916;SDS011;1973;50.518;7.318;2023-11-18T06:01:12;28.10;;;17.80;;
3916;SDS011;1973;50.518;7.318;2023-11-18T06:03:39;27.87;;;16.50;;
3916;SDS011;1973;50.518;7.318;2023-11-18T06:06:09;29.50;;;19.00;;
3916;SDS011;1973;50.518;7.318;2023-11-18T06:08:36;27.97;;;18.10;;
3916;SDS011;1973;50.518;7.318;2023-11-18T06:11:08;28.60;;;18.00;;
3916;SDS011;1973;50.518;7.318;2023-11-18T06:13:45;28.63;;;17.40;;
3916;SDS011;1973;50.518;7.318;2023-11-18T06:16:14;31.13;;;19.10;;
3916;SDS011;1973;50.518;7.318;2023-11-18T06:18:44;29.53;;;19.23;;
3916;SDS011;1973;50.518;7.318;2023-11-18T06:21:14;28.53;;;17.70;;
3916;SDS011;1973;50.518;7.318;2023-11-18T06:23:42;25.00;;;16.07;;
3916;SDS011;1973;50.518;7.318;2023-11-18T06:26:09;24.77;;;16.93;;
3916;SDS011;1973;50.518;7.318;2023-11-18T06:28:40;30.10;;;17.70;;
3916;SDS011;1973;50.518;7.318;2023-11-18T06:31:07;28.27;;;18.13;;
3916;SDS011;1973;50.518;7.318;2023-11-18T06:33:41;24.90;;;16.90;;
3916;SDS011;1973;50.518;7.318;2023-11-18T06:38:40;32.20;;;18.00;;
3916;SDS011;1973;50.518;7.318;2023-11-18T06:41:07;30.40;;;16.70;;
3916;SDS011;1973;50.518;7.318;2023-11-18T06:43:39;26.60;;;17.50;;
3916;SDS011;1973;50.518;7.318;2023-11-18T06:46:26;26.07;;;17.17;;
3916;SDS011;1973;50.518;7.318;2023-11-18T06:48:58;28.73;;;18.43;;
3916;SDS011;1973;50.518;7.318;2023-11-18T06:51:25;27.40;;;16.93;;
3916;SDS011;1973;50.518;7.318;2023-11-18T06:53:54;24.03;;;15.83;;
3916;SDS011;1973;50.518;7.318;2023-11-18T06:56:22;26.33;;;16.40;;
3916;SDS011;1973;50.518;7.318;2023-11-18T06:58:52;23.97;;;16.73;;
3916;SDS011;1973;50.518;7.318;2023-11-18T07:01:19;24.63;;;16.53;;
3916;SDS011;1973;50.518;7.318;2023-11-18T07:03:47;26.20;;;16.20;;
3916;SDS011;1973;50.518;7.318;2023-11-18T07:06:18;25.00;;;17.67;;
3916;SDS011;1973;50.518;7.318;2023-11-18T07:08:53;25.50;;;16.27;;
3916;SDS011;1973;50.518;7.318;2023-11-18T07:11:26;25.27;;;14.77;;
3916;SDS011;1973;50.518;7.318;2023-11-18T07:13:53;27.07;;;16.87;;
3916;SDS011;1973;50.518;7.318;2023-11-18T07:16:23;25.73;;;16.40;;
3916;SDS011;1973;50.518;7.318;2023-11-18T07:18:51;25.57;;;17.40;;
3916;SDS011;1973;50.518;7.318;2023-11-18T07:21:18;23.57;;;14.93;;
3916;SDS011;1973;50.518;7.318;2023-11-18T07:23:46;23.97;;;16.60;;
3916;SDS011;1973;50.518;7.318;2023-11-18T07:26:12;24.87;;;15.33;;
3916;SDS011;1973;50.518;7.318;2023-11-18T07:28:42;26.10;;;15.67;;
3916;SDS011;1973;50.518;7.318;2023-11-18T07:31:10;23.37;;;16.40;;
3916;SDS011;1973;50.518;7.318;2023-11-18T07:33:38;24.27;;;14.80;;
3916;SDS011;1973;50.518;7.318;2023-11-18T07:36:08;24.10;;;15.63;;
3916;SDS011;1973;50.518;7.318;2023-11-18T07:38:37;23.23;;;15.43;;
3916;SDS011;1973;50.518;7.318;2023-11-18T07:41:05;22.47;;;14.53;;
3916;SDS011;1973;50.518;7.318;2023-11-18T07:43:35;24.20;;;15.60;;
3916;SDS011;1973;50.518;7.318;2023-11-18T07:46:06;20.60;;;12.97;;
3916;SDS011;1973;50.518;7.318;2023-11-18T07:48:34;20.90;;;13.73;;
3916;SDS011;1973;50.518;7.318;2023-11-18T07:51:01;22.23;;;15.20;;
3916;SDS011;1973;50.518;7.318;2023-11-18T07:53:28;21.87;;;14.90;;
3916;SDS011;1973;50.518;7.318;2023-11-18T07:55:55;22.57;;;14.23;;
3916;SDS011;1973;50.518;7.318;2023-11-18T07:58:22;20.67;;;14.07;;
3916;SDS011;1973;50.518;7.318;2023-11-18T08:00:49;22.70;;;15.90;;
3916;SDS011;1973;50.518;7.318;2023-11-18T08:03:16;21.87;;;15.57;;
3916;SDS011;1973;50.518;7.318;2023-11-18T08:05:44;21.97;;;14.67;;
3916;SDS011;1973;50.518;7.318;2023-11-18T08:08:14;22.00;;;16.00;;
3916;SDS011;1973;50.518;7.318;2023-11-18T08:10:44;19.90;;;13.60;;
3916;SDS011;1973;50.518;7.318;2023-11-18T08:13:11;21.87;;;15.33;;
3916;SDS011;1973;50.518;7.318;2023-11-18T08:15:38;21.17;;;14.97;;
3916;SDS011;1973;50.518;7.318;2023-11-18T08:18:06;21.40;;;14.40;;
3916;SDS011;1973;50.518;7.318;2023-11-18T08:20:33;21.20;;;14.70;;
3916;SDS011;1973;50.518;7.318;2023-11-18T08:23:00;23.57;;;15.43;;
3916;SDS011;1973;50.518;7.318;2023-11-18T08:25:26;21.50;;;13.33;;
3916;SDS011;1973;50.518;7.318;2023-11-18T08:27:53;20.73;;;14.27;;
3916;SDS011;1973;50.518;7.318;2023-11-18T08:30:19;20.67;;;14.00;;
3916;SDS011;1973;50.518;7.318;2023-11-18T08:32:47;21.90;;;14.50;;
3916;SDS011;1973;50.518;7.318;2023-11-18T08:35:14;22.23;;;13.17;;
3916;SDS011;1973;50.518;7.318;2023-11-18T08:37:42;18.07;;;13.17;;
3916;SDS011;1973;50.518;7.318;2023-11-18T08:40:09;18.73;;;13.63;;
3916;SDS011;1973;50.518;7.318;2023-11-18T08:42:44;22.43;;;12.10;;
3916;SDS011;1973;50.518;7.318;2023-11-18T08:45:16;18.27;;;12.97;;
3916;SDS011;1973;50.518;7.318;2023-11-18T08:47:45;18.33;;;12.77;;
3916;SDS011;1973;50.518;7.318;2023-11-18T08:50:15;18.37;;;12.70;;
3916;SDS011;1973;50.518;7.318;2023-11-18T08:52:43;20.13;;;13.67;;
3916;SDS011;1973;50.518;7.318;2023-11-18T08:55:14;21.57;;;14.90;;
3916;SDS011;1973;50.518;7.318;2023-11-18T08:57:46;18.93;;;14.33;;
3916;SDS011;1973;50.518;7.318;2023-11-18T09:00:26;19.10;;;13.80;;
3916;SDS011;1973;50.518;7.318;2023-11-18T09:03:15;20.83;;;14.20;;
3916;SDS011;1973;50.518;7.318;2023-11-18T09:05:53;21.67;;;15.47;;
3916;SDS011;1973;50.518;7.318;2023-11-18T09:08:33;19.93;;;13.67;;
3916;SDS011;1973;50.518;7.318;2023-11-18T09:11:10;20.30;;;13.83;;
3916;SDS011;1973;50.518;7.318;2023-11-18T09:13:42;16.50;;;12.20;;
3916;SDS011;1973;50.518;7.318;2023-11-18T09:16:11;18.00;;;14.03;;
3916;SDS011;1973;50.518;7.318;2023-11-18T09:18:38;20.00;;;14.60;;
3916;SDS011;1973;50.518;7.318;2023-11-18T09:21:09;19.80;;;12.90;;
3916;SDS011;1973;50.518;7.318;2023-11-18T09:23:42;19.97;;;14.17;;
3916;SDS011;1973;50.518;7.318;2023-11-18T09:26:09;20.33;;;13.40;;
3916;SDS011;1973;50.518;7.318;2023-11-18T09:28:37;17.77;;;13.13;;
3916;SDS011;1973;50.518;7.318;2023-11-18T09:31:04;17.43;;;12.40;;
3916;SDS011;1973;50.518;7.318;2023-11-18T09:33:32;17.83;;;12.20;;
3916;SDS011;1973;50.518;7.318;2023-11-18T09:36:07;17.60;;;12.10;;
3916;SDS011;1973;50.518;7.318;2023-11-18T09:38:35;17.37;;;11.73;;
3916;SDS011;1973;50.518;7.318;2023-11-18T09:41:03;16.83;;;11.30;;
3916;SDS011;1973;50.518;7.318;2023-11-18T09:43:34;17.00;;;11.70;;
3916;SDS011;1973;50.518;7.318;2023-11-18T09:46:09;13.87;;;10.77;;
3916;SDS011;1973;50.518;7.318;2023-11-18T09:48:44;18.07;;;12.10;;
3916;SDS011;1973;50.518;7.318;2023-11-18T09:51:22;14.83;;;10.83;;
3916;SDS011;1973;50.518;7.318;2023-11-18T09:53:50;16.23;;;11.73;;
3916;SDS011;1973;50.518;7.318;2023-11-18T09:56:23;15.93;;;11.50;;
3916;SDS011;1973;50.518;7.318;2023-11-18T09:59:18;16.10;;;10.30;;
3916;SDS011;1973;50.518;7.318;2023-11-18T10:01:56;15.73;;;11.43;;
3916;SDS011;1973;50.518;7.318;2023-11-18T10:04:24;13.80;;;10.27;;
3916;SDS011;1973;50.518;7.318;2023-11-18T10:06:54;15.03;;;11.03;;
3916;SDS011;1973;50.518;7.318;2023-11-18T10:09:23;14.40;;;11.30;;
3916;SDS011;1973;50.518;7.318;2023-11-18T10:12:04;13.87;;;11.10;;
3916;SDS011;1973;50.518;7.318;2023-11-18T10:14:34;13.90;;;10.70;;
3916;SDS011;1973;50.518;7.318;2023-11-18T10:17:05;14.73;;;11.50;;
3916;SDS011;1973;50.518;7.318;2023-11-18T10:19:54;12.70;;;10.00;;
3916;SDS011;1973;50.518;7.318;2023-11-18T10:22:23;19.63;;;12.10;;
3916;SDS011;1973;50.518;7.318;2023-11-18T10:24:54;17.77;;;11.90;;
3916;SDS011;1973;50.518;7.318;2023-11-18T10:27:22;13.87;;;11.03;;
3916;SDS011;1973;50.518;7.318;2023-11-18T10:29:56;12.87;;;11.07;;
3916;SDS011;1973;50.518;7.318;2023-11-18T10:32:30;12.60;;;9.63;;
3916;SDS011;1973;50.518;7.318;2023-11-18T10:35:03;14.57;;;11.50;;
3916;SDS011;1973;50.518;7.318;2023-11-18T10:37:36;12.80;;;10.03;;
3916;SDS011;1973;50.518;7.318;2023-11-18T10:40:10;15.17;;;12.13;;
3916;SDS011;1973;50.518;7.318;2023-11-18T10:42:40;13.40;;;10.13;;
3916;SDS011;1973;50.518;7.318;2023-11-18T10:45:09;18.03;;;11.70;;
3916;SDS011;1973;50.518;7.318;2023-11-18T10:47:39;13.90;;;11.07;;
3916;SDS011;1973;50.518;7.318;2023-11-18T10:50:09;14.50;;;10.80;;
3916;SDS011;1973;50.518;7.318;2023-11-18T10:52:37;16.33;;;10.73;;
3916;SDS011;1973;50.518;7.318;2023-11-18T10:55:07;13.03;;;10.23;;
3916;SDS011;1973;50.518;7.318;2023-11-18T10:57:39;12.73;;;9.83;;
3916;SDS011;1973;50.518;7.318;2023-11-18T11:00:08;12.90;;;10.37;;
3916;SDS011;1973;50.518;7.318;2023-11-18T11:02:45;17.83;;;11.90;;
3916;SDS011;1973;50.518;7.318;2023-11-18T11:05:27;13.33;;;10.33;;
3916;SDS011;1973;50.518;7.318;2023-11-18T11:08:04;13.20;;;10.80;;
3916;SDS011;1973;50.518;7.318;2023-11-18T11:10:32;16.40;;;12.13;;
3916;SDS011;1973;50.518;7.318;2023-11-18T11:13:00;15.27;;;10.83;;
3916;SDS011;1973;50.518;7.318;2023-11-18T11:15:31;12.40;;;9.87;;
3916;SDS011;1973;50.518;7.318;2023-11-18T11:18:20;16.73;;;10.83;;
3916;SDS011;1973;50.518;7.318;2023-11-18T11:23:33;13.47;;;10.20;;
3916;SDS011;1973;50.518;7.318;2023-11-18T11:34:40;15.83;;;12.67;;
3916;SDS011;1973;50.518;7.318;2023-11-18T11:37:15;14.60;;;11.80;;
3916;SDS011;1973;50.518;7.318;2023-11-18T11:39:43;14.80;;;11.10;;
3916;SDS011;1973;50.518;7.318;2023-11-18T11:42:14;18.23;;;11.73;;
3916;SDS011;1973;50.518;7.318;2023-11-18T11:44:44;20.83;;;13.63;;
3916;SDS011;1973;50.518;7.318;2023-11-18T11:47:11;20.70;;;13.53;;
3916;SDS011;1973;50.518;7.318;2023-11-18T11:49:47;17.90;;;12.17;;
3916;SDS011;1973;50.518;7.318;2023-11-18T11:52:28;16.80;;;11.23;;
3916;SDS011;1973;50.518;7.318;2023-11-18T11:55:05;15.50;;;11.00;;
3916;SDS011;1973;50.518;7.318;2023-11-18T11:57:55;13.17;;;9.50;;
3916;SDS011;1973;50.518;7.318;2023-11-18T12:00:25;13.50;;;9.40;;
3916;SDS011;1973;50.518;7.318;2023-11-18T12:03:00;13.90;;;9.40;;
3916;SDS011;1973;50.518;7.318;2023-11-18T12:05:30;14.40;;;9.90;;
3916;SDS011;1973;50.518;7.318;2023-11-18T12:08:00;13.50;;;9.40;;
3916;SDS011;1973;50.518;7.318;2023-11-18T12:10:27;13.27;;;10.03;;
3916;SDS011;1973;50.518;7.318;2023-11-18T12:13:07;11.73;;;8.27;;
3916;SDS011;1973;50.518;7.318;2023-11-18T12:15:54;11.30;;;8.67;;
3916;SDS011;1973;50.518;7.318;2023-11-18T12:18:25;10.73;;;7.97;;
3916;SDS011;1973;50.518;7.318;2023-11-18T12:20:52;11.27;;;8.57;;
3916;SDS011;1973;50.518;7.318;2023-11-18T12:23:23;11.37;;;7.93;;
3916;SDS011;1973;50.518;7.318;2023-11-18T12:25:52;10.40;;;8.30;;
3916;SDS011;1973;50.518;7.318;2023-11-18T12:28:27;11.60;;;7.30;;
3916;SDS011;1973;50.518;7.318;2023-11-18T12:30:57;10.60;;;7.80;;
3916;SDS011;1973;50.518;7.318;2023-11-18T12:33:25;10.27;;;7.80;;
3916;SDS011;1973;50.518;7.318;2023-11-18T12:42:04;9.83;;;6.77;;
3916;SDS011;1973;50.518;7.318;2023-11-18T12:44:50;8.60;;;6.50;;
3916;SDS011;1973;50.518;7.318;2023-11-18T12:47:57;10.20;;;6.00;;
3916;SDS011;1973;50.518;7.318;2023-11-18T12:50:38;8.43;;;5.50;;
3916;SDS011;1973;50.518;7.318;2023-11-18T12:53:07;9.63;;;5.60;;
3916;SDS011;1973;50.518;7.318;2023-11-18T12:55:35;10.30;;;6.70;;
3916;SDS011;1973;50.518;7.318;2023-11-18T12:58:02;8.80;;;6.30;;
3916;SDS011;1973;50.518;7.318;2023-11-18T13:00:31;11.47;;;6.33;;
3916;SDS011;1973;50.518;7.318;2023-11-18T13:03:00;7.30;;;6.40;;
3916;SDS011;1973;50.518;7.318;2023-11-18T13:05:27;10.80;;;6.20;;
3916;SDS011;1973;50.518;7.318;2023-11-18T13:07:56;9.93;;;6.90;;
3916;SDS011;1973;50.518;7.318;2023-11-18T13:10:28;10.60;;;6.60;;
3916;SDS011;1973;50.518;7.318;2023-11-18T13:12:54;9.37;;;6.60;;
3916;SDS011;1973;50.518;7.318;2023-11-18T13:15:21;9.77;;;6.83;;
3916;SDS011;1973;50.518;7.318;2023-11-18T13:17:57;9.80;;;6.77;;
3916;SDS011;1973;50.518;7.318;2023-11-18T13:20:25;10.17;;;5.90;;
3916;SDS011;1973;50.518;7.318;2023-11-18T13:22:52;9.03;;;6.60;;
3916;SDS011;1973;50.518;7.318;2023-11-18T13:25:22;10.20;;;6.47;;
3916;SDS011;1973;50.518;7.318;2023-11-18T13:27:49;9.73;;;7.43;;
3916;SDS011;1973;50.518;7.318;2023-11-18T13:30:17;13.60;;;9.33;;
3916;SDS011;1973;50.518;7.318;2023-11-18T13:32:46;15.73;;;10.43;;
3916;SDS011;1973;50.518;7.318;2023-11-18T13:35:16;15.47;;;10.50;;
3916;SDS011;1973;50.518;7.318;2023-11-18T13:37:46;12.00;;;8.90;;
3916;SDS011;1973;50.518;7.318;2023-11-18T13:40:15;10.60;;;8.17;;
3916;SDS011;1973;50.518;7.318;2023-11-18T13:42:44;12.03;;;8.23;;
3916;SDS011;1973;50.518;7.318;2023-11-18T13:45:12;10.70;;;8.60;;
3916;SDS011;1973;50.518;7.318;2023-11-18T13:48:01;12.90;;;7.90;;
3916;SDS011;1973;50.518;7.318;2023-11-18T13:50:28;10.23;;;7.70;;
3916;SDS011;1973;50.518;7.318;2023-11-18T13:52:55;12.57;;;7.50;;
3916;SDS011;1973;50.518;7.318;2023-11-18T13:55:23;8.37;;;6.83;;
3916;SDS011;1973;50.518;7.318;2023-11-18T13:57:54;11.37;;;6.90;;
3916;SDS011;1973;50.518;7.318;2023-11-18T14:00:24;9.07;;;6.70;;
3916;SDS011;1973;50.518;7.318;2023-11-18T14:02:57;7.93;;;6.47;;
3916;SDS011;1973;50.518;7.318;2023-11-18T14:05:25;7.17;;;4.97;;
3916;SDS011;1973;50.518;7.318;2023-11-18T14:07:55;7.57;;;5.80;;
3916;SDS011;1973;50.518;7.318;2023-11-18T14:10:35;11.60;;;6.00;;
3916;SDS011;1973;50.518;7.318;2023-11-18T14:13:05;10.20;;;6.13;;
3916;SDS011;1973;50.518;7.318;2023-11-18T14:15:32;10.70;;;5.20;;
3916;SDS011;1973;50.518;7.318;2023-11-18T14:18:02;11.47;;;5.13;;
3916;SDS011;1973;50.518;7.318;2023-11-18T14:20:29;5.40;;;3.53;;
3916;SDS011;1973;50.518;7.318;2023-11-18T14:22:57;7.97;;;4.47;;
3916;SDS011;1973;50.518;7.318;2023-11-18T14:25:25;6.63;;;4.53;;
3916;SDS011;1973;50.518;7.318;2023-11-18T14:27:52;9.63;;;4.47;;
3916;SDS011;1973;50.518;7.318;2023-11-18T14:30:19;12.40;;;4.10;;
3916;SDS011;1973;50.518;7.318;2023-11-18T14:32:46;5.43;;;4.13;;
3916;SDS011;1973;50.518;7.318;2023-11-18T14:35:15;8.20;;;4.73;;
3916;SDS011;1973;50.518;7.318;2023-11-18T14:37:44;9.20;;;5.27;;
3916;SDS011;1973;50.518;7.318;2023-11-18T14:40:12;6.20;;;4.10;;
3916;SDS011;1973;50.518;7.318;2023-11-18T14:42:43;9.83;;;3.90;;
3916;SDS011;1973;50.518;7.318;2023-11-18T14:45:12;7.13;;;4.03;;
3916;SDS011;1973;50.518;7.318;2023-11-18T14:47:40;8.63;;;4.20;;
3916;SDS011;1973;50.518;7.318;2023-11-18T14:50:07;6.80;;;3.80;;
3916;SDS011;1973;50.518;7.318;2023-11-18T14:52:44;5.57;;;3.70;;
3916;SDS011;1973;50.518;7.318;2023-11-18T14:55:26;4.90;;;3.20;;
3916;SDS011;1973;50.518;7.318;2023-11-18T14:57:53;6.80;;;3.40;;
3916;SDS011;1973;50.518;7.318;2023-11-18T15:00:21;7.10;;;3.83;;
3916;SDS011;1973;50.518;7.318;2023-11-18T15:02:51;3.67;;;3.07;;
3916;SDS011;1973;50.518;7.318;2023-11-18T15:05:24;6.83;;;3.60;;
3916;SDS011;1973;50.518;7.318;2023-11-18T15:07:51;8.30;;;3.77;;
3916;SDS011;1973;50.518;7.318;2023-11-18T15:10:22;5.23;;;3.50;;
3916;SDS011;1973;50.518;7.318;2023-11-18T15:12:57;9.90;;;3.87;;
3916;SDS011;1973;50.518;7.318;2023-11-18T15:15:25;8.17;;;4.50;;
3916;SDS011;1973;50.518;7.318;2023-11-18T15:18:03;10.80;;;5.63;;
3916;SDS011;1973;50.518;7.318;2023-11-18T15:20:41;5.47;;;3.30;;
3916;SDS011;1973;50.518;7.318;2023-11-18T15:23:13;8.33;;;3.80;;
3916;SDS011;1973;50.518;7.318;2023-11-18T15:25:43;5.97;;;3.97;;
3916;SDS011;1973;50.518;7.318;2023-11-18T15:28:09;11.23;;;4.27;;
3916;SDS011;1973;50.518;7.318;2023-11-18T15:30:36;4.53;;;3.00;;
3916;SDS011;1973;50.518;7.318;2023-11-18T15:33:03;4.53;;;3.57;;